Alfred, Canada
Current Conditions -  °F | °C
As of 12:00 PM on Friday 28 Nov 2014 (Local Time) from CYND Reporting Station
Light Snow Light Snow  
Wind Chill: 13°   Ceiling: 2600
Heat Index: 23°   Visibility: 15mi
Dew Point: 12°   Wind: 9mph
Humidity: 63%   Direction: 320°NW
Pressure: 30.13"   Gusts: NA
Location:  45.55°N, 74.87°W
Report Text: CYND 281700Z 32008KT 280V350 15SM -SN OVC026 M05/M11 A3013 RMK SC8 VIS ESE 3 SLP208
Loading
Personal Weather Stations






























Interactive Weather Map New forecast layout! Learn more

10-Day Weather Forecast

Advertisements
Track Severe Weather on mobile